sensor_id;sensor_type;location;lat;lon;timestamp;P1;durP1;ratioP1;P2;durP2;ratioP2
49043;SDS011;34860;48.066;14.124;2022-08-21T00:01:35;0.30;;;0.20;;
49043;SDS011;34860;48.066;14.124;2022-08-21T00:04:25;0.20;;;0.20;;
49043;SDS011;34860;48.066;14.124;2022-08-21T00:07:14;0.20;;;0.17;;
49043;SDS011;34860;48.066;14.124;2022-08-21T00:10:05;0.10;;;0.10;;
49043;SDS011;34860;48.066;14.124;2022-08-21T00:12:56;0.20;;;0.20;;
49043;SDS011;34860;48.066;14.124;2022-08-21T00:15:46;0.43;;;0.13;;
49043;SDS011;34860;48.066;14.124;2022-08-21T00:18:36;0.75;;;0.57;;
49043;SDS011;34860;48.066;14.124;2022-08-21T00:21:26;0.10;;;0.10;;
49043;SDS011;34860;48.066;14.124;2022-08-21T00:24:15;0.45;;;0.17;;
49043;SDS011;34860;48.066;14.124;2022-08-21T00:27:05;0.10;;;0.10;;
49043;SDS011;34860;48.066;14.124;2022-08-21T00:29:56;0.90;;;0.35;;
49043;SDS011;34860;48.066;14.124;2022-08-21T00:32:45;0.43;;;0.30;;
49043;SDS011;34860;48.066;14.124;2022-08-21T00:35:36;0.50;;;0.30;;
49043;SDS011;34860;48.066;14.124;2022-08-21T00:38:30;0.27;;;0.20;;
49043;SDS011;34860;48.066;14.124;2022-08-21T00:41:19;0.30;;;0.20;;
49043;SDS011;34860;48.066;14.124;2022-08-21T00:44:11;0.75;;;0.28;;
49043;SDS011;34860;48.066;14.124;2022-08-21T00:47:04;1.02;;;0.30;;
49043;SDS011;34860;48.066;14.124;2022-08-21T00:49:53;0.70;;;0.50;;
49043;SDS011;34860;48.066;14.124;2022-08-21T00:52:43;0.80;;;0.10;;
49043;SDS011;34860;48.066;14.124;2022-08-21T00:55:34;1.90;;;0.57;;
49043;SDS011;34860;48.066;14.124;2022-08-21T00:58:25;0.47;;;0.20;;
49043;SDS011;34860;48.066;14.124;2022-08-21T01:01:16;0.20;;;0.20;;
49043;SDS011;34860;48.066;14.124;2022-08-21T01:04:07;0.15;;;0.08;;
49043;SDS011;34860;48.066;14.124;2022-08-21T01:06:57;0.20;;;0.20;;
49043;SDS011;34860;48.066;14.124;2022-08-21T01:09:46;0.10;;;0.10;;
49043;SDS011;34860;48.066;14.124;2022-08-21T01:12:36;0.20;;;0.20;;
49043;SDS011;34860;48.066;14.124;2022-08-21T01:15:29;0.05;;;0.05;;
49043;SDS011;34860;48.066;14.124;2022-08-21T01:18:22;0.73;;;0.63;;
49043;SDS011;34860;48.066;14.124;2022-08-21T01:21:14;0.20;;;0.13;;
49043;SDS011;34860;48.066;14.124;2022-08-21T01:24:05;0.40;;;0.35;;
49043;SDS011;34860;48.066;14.124;2022-08-21T01:26:54;0.40;;;0.40;;
49043;SDS011;34860;48.066;14.124;2022-08-21T01:29:46;0.13;;;0.13;;
49043;SDS011;34860;48.066;14.124;2022-08-21T01:32:41;0.75;;;0.25;;
49043;SDS011;34860;48.066;14.124;2022-08-21T01:35:30;1.08;;;0.32;;
49043;SDS011;34860;48.066;14.124;2022-08-21T01:38:21;0.50;;;0.38;;
49043;SDS011;34860;48.066;14.124;2022-08-21T01:41:11;0.40;;;0.40;;
49043;SDS011;34860;48.066;14.124;2022-08-21T01:44:00;0.30;;;0.30;;
49043;SDS011;34860;48.066;14.124;2022-08-21T01:46:50;0.20;;;0.15;;
49043;SDS011;34860;48.066;14.124;2022-08-21T01:49:40;0.30;;;0.30;;
49043;SDS011;34860;48.066;14.124;2022-08-21T01:52:30;2.78;;;1.00;;
49043;SDS011;34860;48.066;14.124;2022-08-21T01:55:22;0.60;;;0.50;;
49043;SDS011;34860;48.066;14.124;2022-08-21T01:58:14;0.90;;;0.45;;
49043;SDS011;34860;48.066;14.124;2022-08-21T02:01:04;0.55;;;0.43;;
49043;SDS011;34860;48.066;14.124;2022-08-21T02:03:55;10.15;;;0.93;;
49043;SDS011;34860;48.066;14.124;2022-08-21T02:06:45;1.40;;;0.68;;
49043;SDS011;34860;48.066;14.124;2022-08-21T02:09:35;1.33;;;0.10;;
49043;SDS011;34860;48.066;14.124;2022-08-21T02:12:26;0.40;;;0.25;;
49043;SDS011;34860;48.066;14.124;2022-08-21T02:15:17;0.17;;;0.17;;
49043;SDS011;34860;48.066;14.124;2022-08-21T02:18:09;1.08;;;0.20;;
49043;SDS011;34860;48.066;14.124;2022-08-21T02:21:01;0.10;;;0.10;;
49043;SDS011;34860;48.066;14.124;2022-08-21T02:23:52;0.95;;;0.65;;
49043;SDS011;34860;48.066;14.124;2022-08-21T02:26:43;0.20;;;0.20;;
49043;SDS011;34860;48.066;14.124;2022-08-21T02:29:34;0.20;;;0.17;;
49043;SDS011;34860;48.066;14.124;2022-08-21T02:32:25;1.65;;;0.50;;
49043;SDS011;34860;48.066;14.124;2022-08-21T02:35:15;0.10;;;0.10;;
49043;SDS011;34860;48.066;14.124;2022-08-21T02:38:07;2.40;;;0.80;;
49043;SDS011;34860;48.066;14.124;2022-08-21T02:40:59;0.47;;;0.30;;
49043;SDS011;34860;48.066;14.124;2022-08-21T02:43:49;0.70;;;0.32;;
49043;SDS011;34860;48.066;14.124;2022-08-21T02:46:41;2.75;;;0.35;;
49043;SDS011;34860;48.066;14.124;2022-08-21T02:49:31;1.17;;;0.40;;
49043;SDS011;34860;48.066;14.124;2022-08-21T02:52:22;0.82;;;0.20;;
49043;SDS011;34860;48.066;14.124;2022-08-21T02:55:11;0.13;;;0.13;;
49043;SDS011;34860;48.066;14.124;2022-08-21T02:58:00;0.15;;;0.08;;
49043;SDS011;34860;48.066;14.124;2022-08-21T03:00:50;0.63;;;0.40;;
49043;SDS011;34860;48.066;14.124;2022-08-21T03:03:41;0.55;;;0.40;;
49043;SDS011;34860;48.066;14.124;2022-08-21T03:06:32;0.55;;;0.40;;
49043;SDS011;34860;48.066;14.124;2022-08-21T03:09:21;0.28;;;0.28;;
49043;SDS011;34860;48.066;14.124;2022-08-21T03:12:09;0.22;;;0.20;;
49043;SDS011;34860;48.066;14.124;2022-08-21T03:14:59;0.10;;;0.10;;
49043;SDS011;34860;48.066;14.124;2022-08-21T03:17:49;1.10;;;0.47;;
49043;SDS011;34860;48.066;14.124;2022-08-21T03:20:42;0.15;;;0.13;;
49043;SDS011;34860;48.066;14.124;2022-08-21T03:23:32;0.17;;;0.17;;
49043;SDS011;34860;48.066;14.124;2022-08-21T03:26:21;0.65;;;0.50;;
49043;SDS011;34860;48.066;14.124;2022-08-21T03:29:11;0.70;;;0.32;;
49043;SDS011;34860;48.066;14.124;2022-08-21T03:32:00;1.45;;;0.43;;
49043;SDS011;34860;48.066;14.124;2022-08-21T03:34:49;0.40;;;0.10;;
49043;SDS011;34860;48.066;14.124;2022-08-21T03:37:39;1.10;;;0.40;;
49043;SDS011;34860;48.066;14.124;2022-08-21T03:40:28;0.10;;;0.10;;
49043;SDS011;34860;48.066;14.124;2022-08-21T03:43:17;0.32;;;0.30;;
49043;SDS011;34860;48.066;14.124;2022-08-21T03:46:06;0.20;;;0.13;;
49043;SDS011;34860;48.066;14.124;2022-08-21T03:48:55;0.10;;;0.10;;
49043;SDS011;34860;48.066;14.124;2022-08-21T03:51:44;0.70;;;0.30;;
49043;SDS011;34860;48.066;14.124;2022-08-21T03:54:35;0.28;;;0.13;;
49043;SDS011;34860;48.066;14.124;2022-08-21T03:57:23;0.15;;;0.08;;
49043;SDS011;34860;48.066;14.124;2022-08-21T04:00:13;0.25;;;0.17;;
49043;SDS011;34860;48.066;14.124;2022-08-21T04:03:03;0.68;;;0.15;;
49043;SDS011;34860;48.066;14.124;2022-08-21T04:05:53;0.40;;;0.10;;
49043;SDS011;34860;48.066;14.124;2022-08-21T04:08:42;0.20;;;0.10;;
49043;SDS011;34860;48.066;14.124;2022-08-21T04:11:33;0.10;;;0.10;;
49043;SDS011;34860;48.066;14.124;2022-08-21T04:14:28;0.28;;;0.08;;
49043;SDS011;34860;48.066;14.124;2022-08-21T04:17:17;0.38;;;0.38;;
49043;SDS011;34860;48.066;14.124;2022-08-21T04:20:07;0.52;;;0.17;;
49043;SDS011;34860;48.066;14.124;2022-08-21T04:22:56;0.10;;;0.10;;
49043;SDS011;34860;48.066;14.124;2022-08-21T04:25:52;0.73;;;0.10;;
49043;SDS011;34860;48.066;14.124;2022-08-21T04:28:45;0.05;;;0.05;;
49043;SDS011;34860;48.066;14.124;2022-08-21T04:31:34;0.35;;;0.25;;
49043;SDS011;34860;48.066;14.124;2022-08-21T04:34:25;0.75;;;0.52;;
49043;SDS011;34860;48.066;14.124;2022-08-21T04:37:14;0.15;;;0.15;;
49043;SDS011;34860;48.066;14.124;2022-08-21T04:40:04;0.20;;;0.15;;
49043;SDS011;34860;48.066;14.124;2022-08-21T04:42:56;0.22;;;0.20;;
49043;SDS011;34860;48.066;14.124;2022-08-21T04:45:50;0.75;;;0.38;;
49043;SDS011;34860;48.066;14.124;2022-08-21T04:48:41;2.80;;;0.63;;
49043;SDS011;34860;48.066;14.124;2022-08-21T04:51:31;0.25;;;0.17;;
49043;SDS011;34860;48.066;14.124;2022-08-21T04:54:22;0.10;;;0.10;;
49043;SDS011;34860;48.066;14.124;2022-08-21T04:57:11;0.30;;;0.20;;
49043;SDS011;34860;48.066;14.124;2022-08-21T05:00:04;0.30;;;0.30;;
49043;SDS011;34860;48.066;14.124;2022-08-21T05:02:58;0.68;;;0.63;;
49043;SDS011;34860;48.066;14.124;2022-08-21T05:05:48;0.82;;;0.50;;
49043;SDS011;34860;48.066;14.124;2022-08-21T05:08:37;2.42;;;0.50;;
49043;SDS011;34860;48.066;14.124;2022-08-21T05:11:27;0.10;;;0.10;;
49043;SDS011;34860;48.066;14.124;2022-08-21T05:14:17;0.55;;;0.35;;
49043;SDS011;34860;48.066;14.124;2022-08-21T05:17:07;0.30;;;0.30;;
49043;SDS011;34860;48.066;14.124;2022-08-21T05:19:57;0.22;;;0.22;;
49043;SDS011;34860;48.066;14.124;2022-08-21T05:22:46;0.40;;;0.30;;
49043;SDS011;34860;48.066;14.124;2022-08-21T05:25:35;0.57;;;0.28;;
49043;SDS011;34860;48.066;14.124;2022-08-21T05:28:24;2.30;;;1.08;;
49043;SDS011;34860;48.066;14.124;2022-08-21T05:31:13;0.10;;;0.10;;
49043;SDS011;34860;48.066;14.124;2022-08-21T05:34:02;0.28;;;0.20;;
49043;SDS011;34860;48.066;14.124;2022-08-21T05:36:53;1.00;;;0.40;;
49043;SDS011;34860;48.066;14.124;2022-08-21T05:39:42;0.25;;;0.25;;
49043;SDS011;34860;48.066;14.124;2022-08-21T05:42:31;0.30;;;0.30;;
49043;SDS011;34860;48.066;14.124;2022-08-21T05:45:20;3.45;;;0.52;;
49043;SDS011;34860;48.066;14.124;2022-08-21T05:48:10;0.38;;;0.22;;
49043;SDS011;34860;48.066;14.124;2022-08-21T05:51:04;0.88;;;0.32;;
49043;SDS011;34860;48.066;14.124;2022-08-21T05:53:55;3.67;;;1.02;;
49043;SDS011;34860;48.066;14.124;2022-08-21T05:56:44;1.58;;;0.45;;
49043;SDS011;34860;48.066;14.124;2022-08-21T05:59:35;1.58;;;0.80;;
49043;SDS011;34860;48.066;14.124;2022-08-21T06:02:27;0.85;;;0.30;;
49043;SDS011;34860;48.066;14.124;2022-08-21T06:05:17;1.15;;;0.63;;
49043;SDS011;34860;48.066;14.124;2022-08-21T06:08:06;0.65;;;0.40;;
49043;SDS011;34860;48.066;14.124;2022-08-21T06:10:57;3.35;;;0.70;;
49043;SDS011;34860;48.066;14.124;2022-08-21T06:13:48;0.30;;;0.30;;
49043;SDS011;34860;48.066;14.124;2022-08-21T06:16:36;0.47;;;0.40;;
49043;SDS011;34860;48.066;14.124;2022-08-21T06:19:26;0.50;;;0.50;;
49043;SDS011;34860;48.066;14.124;2022-08-21T06:22:15;0.30;;;0.20;;
49043;SDS011;34860;48.066;14.124;2022-08-21T06:25:05;1.73;;;0.90;;
49043;SDS011;34860;48.066;14.124;2022-08-21T06:28:01;1.98;;;0.40;;
49043;SDS011;34860;48.066;14.124;2022-08-21T06:30:51;0.03;;;0.03;;
49043;SDS011;34860;48.066;14.124;2022-08-21T06:33:40;1.15;;;0.82;;
49043;SDS011;34860;48.066;14.124;2022-08-21T06:36:29;0.20;;;0.15;;
49043;SDS011;34860;48.066;14.124;2022-08-21T06:39:18;1.52;;;0.68;;
49043;SDS011;34860;48.066;14.124;2022-08-21T06:42:12;0.93;;;0.70;;
49043;SDS011;34860;48.066;14.124;2022-08-21T06:45:05;0.80;;;0.57;;
49043;SDS011;34860;48.066;14.124;2022-08-21T06:47:54;3.38;;;0.90;;
49043;SDS011;34860;48.066;14.124;2022-08-21T06:50:43;5.85;;;0.77;;
49043;SDS011;34860;48.066;14.124;2022-08-21T06:53:32;0.57;;;0.40;;
49043;SDS011;34860;48.066;14.124;2022-08-21T06:56:21;0.52;;;0.35;;
49043;SDS011;34860;48.066;14.124;2022-08-21T06:59:10;1.60;;;0.82;;
49043;SDS011;34860;48.066;14.124;2022-08-21T07:02:01;2.13;;;1.20;;
49043;SDS011;34860;48.066;14.124;2022-08-21T07:04:50;1.38;;;0.73;;
49043;SDS011;34860;48.066;14.124;2022-08-21T07:07:39;2.58;;;0.60;;
49043;SDS011;34860;48.066;14.124;2022-08-21T07:10:28;0.43;;;0.30;;
49043;SDS011;34860;48.066;14.124;2022-08-21T07:13:17;2.65;;;0.75;;
49043;SDS011;34860;48.066;14.124;2022-08-21T07:16:06;3.42;;;1.30;;
49043;SDS011;34860;48.066;14.124;2022-08-21T07:18:57;0.90;;;0.80;;
49043;SDS011;34860;48.066;14.124;2022-08-21T07:21:46;2.17;;;1.40;;
49043;SDS011;34860;48.066;14.124;2022-08-21T07:24:35;3.80;;;1.63;;
49043;SDS011;34860;48.066;14.124;2022-08-21T07:27:24;1.38;;;0.60;;
49043;SDS011;34860;48.066;14.124;2022-08-21T07:30:13;2.08;;;1.02;;
49043;SDS011;34860;48.066;14.124;2022-08-21T07:33:02;2.45;;;0.88;;
49043;SDS011;34860;48.066;14.124;2022-08-21T07:35:53;1.00;;;0.88;;
49043;SDS011;34860;48.066;14.124;2022-08-21T07:38:45;2.72;;;1.05;;
49043;SDS011;34860;48.066;14.124;2022-08-21T07:41:34;1.27;;;0.65;;
49043;SDS011;34860;48.066;14.124;2022-08-21T07:44:22;1.27;;;0.98;;
49043;SDS011;34860;48.066;14.124;2022-08-21T07:47:11;1.10;;;0.70;;
49043;SDS011;34860;48.066;14.124;2022-08-21T07:50:00;0.73;;;0.68;;
49043;SDS011;34860;48.066;14.124;2022-08-21T07:52:50;1.00;;;0.45;;
49043;SDS011;34860;48.066;14.124;2022-08-21T07:55:40;1.60;;;1.30;;
49043;SDS011;34860;48.066;14.124;2022-08-21T07:58:29;0.73;;;0.30;;
49043;SDS011;34860;48.066;14.124;2022-08-21T08:01:17;1.55;;;0.88;;
49043;SDS011;34860;48.066;14.124;2022-08-21T08:04:07;1.38;;;0.88;;
49043;SDS011;34860;48.066;14.124;2022-08-21T08:06:58;1.60;;;0.60;;
49043;SDS011;34860;48.066;14.124;2022-08-21T08:09:49;3.30;;;1.58;;
49043;SDS011;34860;48.066;14.124;2022-08-21T08:12:38;2.25;;;0.75;;
49043;SDS011;34860;48.066;14.124;2022-08-21T08:15:30;0.60;;;0.45;;
49043;SDS011;34860;48.066;14.124;2022-08-21T08:18:26;5.07;;;0.95;;
49043;SDS011;34860;48.066;14.124;2022-08-21T08:21:18;3.17;;;0.95;;
49043;SDS011;34860;48.066;14.124;2022-08-21T08:24:11;1.40;;;0.95;;
49043;SDS011;34860;48.066;14.124;2022-08-21T08:27:06;1.17;;;0.75;;
49043;SDS011;34860;48.066;14.124;2022-08-21T08:32:55;2.00;;;0.60;;
49043;SDS011;34860;48.066;14.124;2022-08-21T08:39:06;0.70;;;0.70;;
49043;SDS011;34860;48.066;14.124;2022-08-21T08:42:01;1.25;;;0.70;;
49043;SDS011;34860;48.066;14.124;2022-08-21T08:45:04;0.80;;;0.77;;
49043;SDS011;34860;48.066;14.124;2022-08-21T08:48:02;1.75;;;0.70;;
49043;SDS011;34860;48.066;14.124;2022-08-21T08:50:59;0.68;;;0.40;;
49043;SDS011;34860;48.066;14.124;2022-08-21T08:53:59;1.85;;;0.98;;
49043;SDS011;34860;48.066;14.124;2022-08-21T08:56:59;0.82;;;0.50;;
49043;SDS011;34860;48.066;14.124;2022-08-21T08:59:56;1.77;;;0.77;;
49043;SDS011;34860;48.066;14.124;2022-08-21T09:02:52;2.40;;;1.25;;
49043;SDS011;34860;48.066;14.124;2022-08-21T09:05:52;0.20;;;0.20;;
49043;SDS011;34860;48.066;14.124;2022-08-21T09:08:54;0.47;;;0.30;;
49043;SDS011;34860;48.066;14.124;2022-08-21T09:12:00;2.03;;;0.88;;
49043;SDS011;34860;48.066;14.124;2022-08-21T09:15:03;0.85;;;0.40;;
49043;SDS011;34860;48.066;14.124;2022-08-21T09:18:16;1.15;;;0.57;;
49043;SDS011;34860;48.066;14.124;2022-08-21T09:21:22;1.75;;;0.63;;
49043;SDS011;34860;48.066;14.124;2022-08-21T09:24:26;0.65;;;0.63;;
49043;SDS011;34860;48.066;14.124;2022-08-21T09:27:27;0.30;;;0.22;;
49043;SDS011;34860;48.066;14.124;2022-08-21T09:30:28;0.60;;;0.60;;
49043;SDS011;34860;48.066;14.124;2022-08-21T09:33:25;1.38;;;0.77;;
49043;SDS011;34860;48.066;14.124;2022-08-21T09:36:24;1.25;;;0.60;;
49043;SDS011;34860;48.066;14.124;2022-08-21T09:39:26;9.15;;;2.50;;
49043;SDS011;34860;48.066;14.124;2022-08-21T09:42:25;23.20;;;3.63;;
49043;SDS011;34860;48.066;14.124;2022-08-21T09:45:20;31.48;;;3.10;;
49043;SDS011;34860;48.066;14.124;2022-08-21T09:48:17;6.80;;;2.13;;
49043;SDS011;34860;48.066;14.124;2022-08-21T09:51:15;2.72;;;0.90;;
49043;SDS011;34860;48.066;14.124;2022-08-21T09:54:12;4.22;;;1.05;;
49043;SDS011;34860;48.066;14.124;2022-08-21T09:57:12;0.85;;;0.50;;
49043;SDS011;34860;48.066;14.124;2022-08-21T10:00:31;1.05;;;0.68;;
49043;SDS011;34860;48.066;14.124;2022-08-21T10:06:21;1.02;;;0.60;;
49043;SDS011;34860;48.066;14.124;2022-08-21T10:09:13;0.65;;;0.63;;
49043;SDS011;34860;48.066;14.124;2022-08-21T10:12:09;1.63;;;0.93;;
49043;SDS011;34860;48.066;14.124;2022-08-21T10:15:08;1.55;;;1.13;;
49043;SDS011;34860;48.066;14.124;2022-08-21T10:18:09;2.78;;;1.00;;
49043;SDS011;34860;48.066;14.124;2022-08-21T10:21:17;5.03;;;1.65;;
49043;SDS011;34860;48.066;14.124;2022-08-21T10:24:16;4.95;;;1.35;;
49043;SDS011;34860;48.066;14.124;2022-08-21T10:27:20;9.43;;;2.80;;
49043;SDS011;34860;48.066;14.124;2022-08-21T10:30:21;0.52;;;0.38;;
49043;SDS011;34860;48.066;14.124;2022-08-21T10:33:30;1.00;;;0.75;;
49043;SDS011;34860;48.066;14.124;2022-08-21T10:36:35;0.65;;;0.47;;
49043;SDS011;34860;48.066;14.124;2022-08-21T10:39:37;3.15;;;0.98;;
49043;SDS011;34860;48.066;14.124;2022-08-21T10:42:41;1.98;;;1.23;;
49043;SDS011;34860;48.066;14.124;2022-08-21T10:45:44;2.33;;;1.33;;
49043;SDS011;34860;48.066;14.124;2022-08-21T10:48:43;1.90;;;1.00;;
49043;SDS011;34860;48.066;14.124;2022-08-21T10:51:38;1.45;;;0.98;;
49043;SDS011;34860;48.066;14.124;2022-08-21T10:54:36;0.80;;;0.70;;
49043;SDS011;34860;48.066;14.124;2022-08-21T10:57:36;3.75;;;1.23;;
49043;SDS011;34860;48.066;14.124;2022-08-21T11:00:33;2.22;;;0.93;;
49043;SDS011;34860;48.066;14.124;2022-08-21T11:03:32;1.20;;;1.00;;
49043;SDS011;34860;48.066;14.124;2022-08-21T11:06:25;4.55;;;1.55;;
49043;SDS011;34860;48.066;14.124;2022-08-21T11:09:21;4.80;;;1.77;;
49043;SDS011;34860;48.066;14.124;2022-08-21T11:12:17;2.78;;;1.17;;
49043;SDS011;34860;48.066;14.124;2022-08-21T11:15:18;2.63;;;0.65;;
49043;SDS011;34860;48.066;14.124;2022-08-21T11:18:21;2.38;;;1.25;;
49043;SDS011;34860;48.066;14.124;2022-08-21T11:21:19;1.35;;;0.90;;
49043;SDS011;34860;48.066;14.124;2022-08-21T11:24:19;5.82;;;1.30;;
49043;SDS011;34860;48.066;14.124;2022-08-21T11:27:21;1.95;;;1.33;;
49043;SDS011;34860;48.066;14.124;2022-08-21T11:30:18;5.03;;;1.67;;
49043;SDS011;34860;48.066;14.124;2022-08-21T11:33:12;16.15;;;1.60;;
49043;SDS011;34860;48.066;14.124;2022-08-21T11:36:15;5.28;;;1.83;;
49043;SDS011;34860;48.066;14.124;2022-08-21T11:39:13;2.20;;;1.40;;
49043;SDS011;34860;48.066;14.124;2022-08-21T11:42:14;2.97;;;1.67;;
49043;SDS011;34860;48.066;14.124;2022-08-21T11:45:13;3.90;;;1.80;;
49043;SDS011;34860;48.066;14.124;2022-08-21T11:48:11;2.53;;;1.23;;
49043;SDS011;34860;48.066;14.124;2022-08-21T11:51:11;4.13;;;1.63;;
49043;SDS011;34860;48.066;14.124;2022-08-21T11:54:05;2.58;;;1.70;;
49043;SDS011;34860;48.066;14.124;2022-08-21T11:57:03;1.85;;;0.90;;
49043;SDS011;34860;48.066;14.124;2022-08-21T11:59:59;2.72;;;1.10;;
49043;SDS011;34860;48.066;14.124;2022-08-21T12:03:09;1.83;;;1.08;;
49043;SDS011;34860;48.066;14.124;2022-08-21T12:06:04;0.38;;;0.30;;
49043;SDS011;34860;48.066;14.124;2022-08-21T12:08:57;0.10;;;0.10;;
49043;SDS011;34860;48.066;14.124;2022-08-21T12:11:48;0.68;;;0.10;;
49043;SDS011;34860;48.066;14.124;2022-08-21T12:14:44;0.85;;;0.35;;
49043;SDS011;34860;48.066;14.124;2022-08-21T12:17:37;0.95;;;0.20;;
49043;SDS011;34860;48.066;14.124;2022-08-21T12:20:34;0.20;;;0.20;;
49043;SDS011;34860;48.066;14.124;2022-08-21T12:23:29;0.10;;;0.10;;
49043;SDS011;34860;48.066;14.124;2022-08-21T12:26:22;1.45;;;0.10;;
49043;SDS011;34860;48.066;14.124;2022-08-21T12:29:16;0.38;;;0.28;;
49043;SDS011;34860;48.066;14.124;2022-08-21T12:32:20;0.03;;;0.03;;
49043;SDS011;34860;48.066;14.124;2022-08-21T12:35:14;1.40;;;0.38;;
49043;SDS011;34860;48.066;14.124;2022-08-21T12:38:06;2.45;;;0.63;;
49043;SDS011;34860;48.066;14.124;2022-08-21T12:41:03;2.25;;;0.68;;
49043;SDS011;34860;48.066;14.124;2022-08-21T12:43:56;0.15;;;0.08;;
49043;SDS011;34860;48.066;14.124;2022-08-21T12:46:51;0.30;;;0.13;;
49043;SDS011;34860;48.066;14.124;2022-08-21T12:49:50;0.30;;;0.22;;
49043;SDS011;34860;48.066;14.124;2022-08-21T12:52:45;0.68;;;0.50;;
49043;SDS011;34860;48.066;14.124;2022-08-21T12:55:42;0.05;;;0.03;;
49043;SDS011;34860;48.066;14.124;2022-08-21T12:58:31;0.55;;;0.40;;
49043;SDS011;34860;48.066;14.124;2022-08-21T13:01:23;0.50;;;0.38;;
49043;SDS011;34860;48.066;14.124;2022-08-21T13:04:15;0.47;;;0.40;;
49043;SDS011;34860;48.066;14.124;2022-08-21T13:07:07;1.42;;;0.30;;
49043;SDS011;34860;48.066;14.124;2022-08-21T13:10:01;0.17;;;0.17;;
49043;SDS011;34860;48.066;14.124;2022-08-21T13:12:54;1.45;;;0.70;;
49043;SDS011;34860;48.066;14.124;2022-08-21T13:15:45;0.32;;;0.22;;
49043;SDS011;34860;48.066;14.124;2022-08-21T13:18:35;0.10;;;0.10;;
49043;SDS011;34860;48.066;14.124;2022-08-21T13:21:42;1.38;;;0.35;;
49043;SDS011;34860;48.066;14.124;2022-08-21T13:24:33;0.50;;;0.30;;
49043;SDS011;34860;48.066;14.124;2022-08-21T13:27:32;0.50;;;0.25;;
49043;SDS011;34860;48.066;14.124;2022-08-21T13:30:21;2.38;;;0.32;;
49043;SDS011;34860;48.066;14.124;2022-08-21T13:33:12;0.40;;;0.30;;
49043;SDS011;34860;48.066;14.124;2022-08-21T13:36:04;0.38;;;0.32;;
49043;SDS011;34860;48.066;14.124;2022-08-21T13:38:57;0.30;;;0.20;;
49043;SDS011;34860;48.066;14.124;2022-08-21T13:41:47;0.10;;;0.10;;
49043;SDS011;34860;48.066;14.124;2022-08-21T13:44:42;0.22;;;0.17;;
49043;SDS011;34860;48.066;14.124;2022-08-21T13:47:32;0.70;;;0.35;;
49043;SDS011;34860;48.066;14.124;2022-08-21T13:50:22;0.30;;;0.20;;
49043;SDS011;34860;48.066;14.124;2022-08-21T13:53:20;0.22;;;0.20;;
49043;SDS011;34860;48.066;14.124;2022-08-21T13:56:21;0.65;;;0.45;;
49043;SDS011;34860;48.066;14.124;2022-08-21T13:59:22;0.70;;;0.50;;
49043;SDS011;34860;48.066;14.124;2022-08-21T14:02:15;0.25;;;0.20;;
49043;SDS011;34860;48.066;14.124;2022-08-21T14:05:06;0.10;;;0.10;;
49043;SDS011;34860;48.066;14.124;2022-08-21T14:08:03;2.42;;;0.25;;
49043;SDS011;34860;48.066;14.124;2022-08-21T14:10:55;0.03;;;0.03;;
49043;SDS011;34860;48.066;14.124;2022-08-21T14:13:45;5.72;;;0.47;;
49043;SDS011;34860;48.066;14.124;2022-08-21T14:16:42;1.42;;;0.60;;
49043;SDS011;34860;48.066;14.124;2022-08-21T14:19:41;0.30;;;0.10;;
49043;SDS011;34860;48.066;14.124;2022-08-21T14:22:35;2.80;;;0.70;;
49043;SDS011;34860;48.066;14.124;2022-08-21T14:25:27;0.10;;;0.10;;
49043;SDS011;34860;48.066;14.124;2022-08-21T14:28:19;0.17;;;0.17;;
49043;SDS011;34860;48.066;14.124;2022-08-21T14:31:15;0.70;;;0.32;;
49043;SDS011;34860;48.066;14.124;2022-08-21T14:34:06;0.20;;;0.20;;
49043;SDS011;34860;48.066;14.124;2022-08-21T14:36:58;3.85;;;0.60;;
49043;SDS011;34860;48.066;14.124;2022-08-21T14:39:48;0.98;;;0.50;;
49043;SDS011;34860;48.066;14.124;2022-08-21T14:42:44;0.10;;;0.10;;
49043;SDS011;34860;48.066;14.124;2022-08-21T14:45:36;0.40;;;0.30;;
49043;SDS011;34860;48.066;14.124;2022-08-21T14:48:27;2.40;;;0.55;;
49043;SDS011;34860;48.066;14.124;2022-08-21T14:51:16;0.57;;;0.47;;
49043;SDS011;34860;48.066;14.124;2022-08-21T14:54:07;0.20;;;0.20;;
49043;SDS011;34860;48.066;14.124;2022-08-21T14:56:56;0.25;;;0.20;;
49043;SDS011;34860;48.066;14.124;2022-08-21T14:59:46;0.20;;;0.20;;
49043;SDS011;34860;48.066;14.124;2022-08-21T15:02:35;0.10;;;0.10;;
49043;SDS011;34860;48.066;14.124;2022-08-21T15:05:24;0.05;;;0.05;;
49043;SDS011;34860;48.066;14.124;2022-08-21T15:08:13;0.47;;;0.30;;
49043;SDS011;34860;48.066;14.124;2022-08-21T15:11:04;0.40;;;0.20;;
49043;SDS011;34860;48.066;14.124;2022-08-21T15:13:57;0.52;;;0.35;;
49043;SDS011;34860;48.066;14.124;2022-08-21T15:16:50;0.25;;;0.10;;
49043;SDS011;34860;48.066;14.124;2022-08-21T15:19:39;0.60;;;0.50;;
49043;SDS011;34860;48.066;14.124;2022-08-21T15:22:28;0.68;;;0.20;;
49043;SDS011;34860;48.066;14.124;2022-08-21T15:25:17;0.95;;;0.30;;
49043;SDS011;34860;48.066;14.124;2022-08-21T15:28:07;0.43;;;0.32;;
49043;SDS011;34860;48.066;14.124;2022-08-21T15:30:57;1.00;;;0.65;;
49043;SDS011;34860;48.066;14.124;2022-08-21T15:33:49;0.80;;;0.32;;
49043;SDS011;34860;48.066;14.124;2022-08-21T15:36:43;0.20;;;0.20;;
49043;SDS011;34860;48.066;14.124;2022-08-21T15:39:32;0.77;;;0.32;;
49043;SDS011;34860;48.066;14.124;2022-08-21T15:42:21;8.88;;;0.40;;
49043;SDS011;34860;48.066;14.124;2022-08-21T15:45:14;0.45;;;0.35;;
49043;SDS011;34860;48.066;14.124;2022-08-21T15:48:03;0.30;;;0.20;;
49043;SDS011;34860;48.066;14.124;2022-08-21T15:50:52;0.68;;;0.40;;
49043;SDS011;34860;48.066;14.124;2022-08-21T15:53:41;0.17;;;0.10;;
49043;SDS011;34860;48.066;14.124;2022-08-21T15:56:32;0.10;;;0.10;;
49043;SDS011;34860;48.066;14.124;2022-08-21T15:59:22;0.68;;;0.35;;
49043;SDS011;34860;48.066;14.124;2022-08-21T16:02:15;0.38;;;0.17;;
49043;SDS011;34860;48.066;14.124;2022-08-21T16:05:09;0.98;;;0.60;;
49043;SDS011;34860;48.066;14.124;2022-08-21T16:08:00;0.35;;;0.35;;
49043;SDS011;34860;48.066;14.124;2022-08-21T16:10:49;0.10;;;0.10;;
49043;SDS011;34860;48.066;14.124;2022-08-21T16:13:40;0.10;;;0.10;;
49043;SDS011;34860;48.066;14.124;2022-08-21T16:16:30;0.00;;;0.00;;
49043;SDS011;34860;48.066;14.124;2022-08-21T16:19:24;0.32;;;0.25;;
49043;SDS011;34860;48.066;14.124;2022-08-21T16:22:18;0.70;;;0.40;;
49043;SDS011;34860;48.066;14.124;2022-08-21T16:25:08;1.20;;;0.40;;
49043;SDS011;34860;48.066;14.124;2022-08-21T16:27:58;0.43;;;0.30;;
49043;SDS011;34860;48.066;14.124;2022-08-21T16:30:49;0.52;;;0.32;;
49043;SDS011;34860;48.066;14.124;2022-08-21T16:33:40;0.47;;;0.30;;
49043;SDS011;34860;48.066;14.124;2022-08-21T16:36:32;0.17;;;0.17;;
49043;SDS011;34860;48.066;14.124;2022-08-21T16:39:21;0.15;;;0.10;;
49043;SDS011;34860;48.066;14.124;2022-08-21T16:42:10;0.43;;;0.17;;
49043;SDS011;34860;48.066;14.124;2022-08-21T16:45:05;0.40;;;0.20;;
49043;SDS011;34860;48.066;14.124;2022-08-21T16:47:55;0.30;;;0.22;;
49043;SDS011;34860;48.066;14.124;2022-08-21T16:50:44;0.17;;;0.10;;
49043;SDS011;34860;48.066;14.124;2022-08-21T16:53:37;0.10;;;0.10;;
49043;SDS011;34860;48.066;14.124;2022-08-21T16:56:26;1.40;;;0.68;;
49043;SDS011;34860;48.066;14.124;2022-08-21T16:59:15;1.08;;;0.52;;
49043;SDS011;34860;48.066;14.124;2022-08-21T17:02:04;0.52;;;0.45;;
49043;SDS011;34860;48.066;14.124;2022-08-21T17:05:00;0.77;;;0.55;;
49043;SDS011;34860;48.066;14.124;2022-08-21T17:07:50;0.57;;;0.47;;
49043;SDS011;34860;48.066;14.124;2022-08-21T17:10:41;1.10;;;0.47;;
49043;SDS011;34860;48.066;14.124;2022-08-21T17:13:33;0.75;;;0.38;;